createdAt,value
2022-09-15T00:01:31.566Z,67.16
2022-09-15T00:04:00.163Z,67.00
2022-09-15T00:06:28.643Z,67.34
2022-09-15T00:08:59.339Z,67.59
2022-09-15T00:11:29.718Z,67.55
2022-09-15T00:14:01.317Z,67.45
2022-09-15T00:16:31.814Z,67.15
2022-09-15T00:19:00.605Z,66.46
2022-09-15T00:21:33.015Z,66.26
2022-09-15T00:24:03.723Z,66.12
2022-09-15T00:26:32.458Z,65.92
2022-09-15T00:29:02.015Z,65.96
2022-09-15T00:31:32.059Z,65.92
2022-09-15T00:34:03.833Z,65.70
2022-09-15T00:36:32.176Z,66.08
2022-09-15T00:39:01.738Z,66.17
2022-09-15T00:41:30.025Z,66.58
2022-09-15T00:44:00.863Z,67.52
2022-09-15T00:46:32.086Z,69.23
2022-09-15T00:49:08.662Z,69.36
2022-09-15T00:51:44.221Z,68.86
2022-09-15T00:54:20.283Z,67.98
2022-09-15T00:56:52.937Z,68.21
2022-09-15T00:59:25.998Z,68.52
2022-09-15T01:02:00.587Z,67.71
2022-09-15T01:04:28.950Z,67.65
2022-09-15T01:07:04.767Z,67.32
2022-09-15T01:09:39.635Z,67.30
2022-09-15T01:12:08.657Z,67.57
2022-09-15T01:14:37.113Z,68.04
2022-09-15T01:17:12.180Z,67.90
2022-09-15T01:20:31.499Z,67.61
2022-09-15T01:23:27.140Z,68.00
2022-09-15T01:26:42.260Z,67.80
2022-09-15T01:29:49.229Z,67.87
2022-09-15T01:32:41.270Z,67.81
2022-09-15T01:35:26.038Z,67.80
2022-09-15T01:38:01.981Z,67.63
2022-09-15T01:40:36.811Z,68.11
2022-09-15T01:43:06.687Z,67.79
2022-09-15T01:45:37.746Z,68.81
2022-09-15T01:48:09.227Z,68.77
2022-09-15T01:50:44.494Z,69.19
2022-09-15T01:53:17.295Z,69.68
2022-09-15T01:55:53.913Z,69.76
2022-09-15T01:58:22.647Z,69.21
2022-09-15T02:00:57.571Z,68.94
2022-09-15T02:03:33.659Z,68.80
2022-09-15T02:06:09.151Z,68.60
2022-09-15T02:08:44.833Z,68.34
2022-09-15T02:11:18.248Z,68.11
2022-09-15T02:13:54.121Z,68.15
2022-09-15T02:16:27.015Z,67.75
2022-09-15T02:19:10.759Z,67.48
2022-09-15T02:21:59.570Z,67.63
2022-09-15T02:24:33.707Z,67.30
2022-09-15T02:27:03.727Z,67.47
2022-09-15T02:29:36.278Z,67.28
2022-09-15T02:32:08.115Z,67.47
2022-09-15T02:34:42.296Z,67.14
2022-09-15T02:37:12.538Z,66.82
2022-09-15T02:39:46.588Z,66.76
2022-09-15T02:42:24.581Z,66.51
2022-09-15T02:44:53.042Z,66.21
2022-09-15T02:47:23.085Z,66.45
2022-09-15T02:49:51.359Z,66.02
2022-09-15T02:52:19.594Z,65.51
2022-09-15T02:54:48.070Z,65.54
2022-09-15T02:57:16.485Z,65.61
2022-09-15T03:00:07.631Z,65.89
2022-09-15T03:02:37.416Z,65.87
2022-09-15T03:05:06.835Z,65.51
2022-09-15T03:07:35.025Z,64.90
2022-09-15T03:10:03.248Z,64.91
2022-09-15T03:12:31.439Z,64.62
2022-09-15T03:14:59.659Z,64.37
2022-09-15T03:17:27.877Z,64.67
2022-09-15T03:19:57.484Z,64.47
2022-09-15T03:22:25.831Z,64.79
2022-09-15T03:24:54.064Z,65.04
2022-09-15T03:27:22.266Z,64.44
2022-09-15T03:29:50.626Z,64.71
2022-09-15T03:32:18.881Z,64.55
2022-09-15T03:34:47.259Z,64.52
2022-09-15T03:37:17.185Z,64.45
2022-09-15T03:39:45.576Z,64.29
2022-09-15T03:42:14.132Z,64.28
2022-09-15T03:44:42.328Z,64.21
2022-09-15T03:47:10.515Z,64.05
2022-09-15T03:49:38.845Z,63.57
2022-09-15T03:52:07.037Z,64.03
2022-09-15T03:54:36.617Z,64.19
2022-09-15T03:57:05.339Z,64.22
2022-09-15T03:59:33.538Z,65.06
2022-09-15T04:02:01.787Z,65.27
2022-09-15T04:04:30.195Z,64.91
2022-09-15T04:06:58.444Z,65.03
2022-09-15T04:09:26.814Z,65.67
2022-09-15T04:11:56.455Z,65.75
2022-09-15T04:14:24.655Z,65.77
2022-09-15T04:16:52.887Z,65.29
2022-09-15T04:19:21.153Z,65.14
2022-09-15T04:21:49.371Z,64.87
2022-09-15T04:24:17.650Z,65.05
2022-09-15T04:26:45.908Z,65.10
2022-09-15T04:29:17.602Z,64.76
2022-09-15T04:31:46.819Z,65.17
2022-09-15T04:34:15.199Z,64.90
2022-09-15T04:36:43.631Z,64.71
2022-09-15T04:39:11.949Z,64.54
2022-09-15T04:41:40.186Z,64.90
2022-09-15T04:44:08.599Z,64.29
2022-09-15T04:46:38.364Z,64.09
2022-09-15T04:49:06.631Z,64.21
2022-09-15T04:51:34.827Z,63.73
2022-09-15T04:54:03.298Z,63.79
2022-09-15T04:56:31.538Z,63.85
2022-09-15T04:59:04.202Z,64.18
2022-09-15T05:01:36.240Z,64.66
2022-09-15T05:04:06.142Z,64.37
2022-09-15T05:06:36.253Z,64.28
2022-09-15T05:09:10.309Z,64.07
2022-09-15T05:11:39.439Z,63.81
2022-09-15T05:14:09.615Z,63.70
2022-09-15T05:16:38.449Z,63.91
2022-09-15T05:19:08.048Z,64.19
2022-09-15T05:21:36.264Z,64.22
2022-09-15T05:24:04.599Z,64.27
2022-09-15T05:26:32.855Z,64.36
2022-09-15T05:29:01.120Z,64.36
2022-09-15T05:31:33.748Z,64.83
2022-09-15T05:34:05.381Z,65.02
2022-09-15T05:36:35.239Z,65.58
2022-09-15T05:39:03.924Z,64.73
2022-09-15T05:41:32.753Z,64.16
2022-09-15T05:44:00.958Z,63.45
2022-09-15T05:46:30.138Z,63.56
2022-09-15T05:48:59.797Z,63.75
2022-09-15T05:51:30.140Z,63.64
2022-09-15T05:54:00.093Z,63.13
2022-09-15T05:56:28.384Z,63.20
2022-09-15T05:58:57.044Z,63.25
2022-09-15T06:01:27.605Z,62.65
2022-09-15T06:03:56.558Z,62.76
2022-09-15T06:06:26.907Z,62.97
2022-09-15T06:08:58.769Z,63.31
2022-09-15T06:11:31.734Z,64.13
2022-09-15T06:14:02.982Z,63.95
2022-09-15T06:16:34.497Z,63.96
2022-09-15T06:19:03.416Z,63.98
2022-09-15T06:21:33.545Z,63.77
2022-09-15T06:24:04.520Z,63.43
2022-09-15T06:26:35.087Z,64.13
2022-09-15T06:29:06.378Z,64.89
2022-09-15T06:31:35.831Z,63.23
2022-09-15T06:34:05.420Z,62.33
2022-09-15T06:36:33.906Z,62.05
2022-09-15T06:39:02.807Z,62.66
2022-09-15T06:41:47.430Z,63.25
2022-09-15T06:44:21.303Z,63.31
2022-09-15T06:46:50.050Z,63.12
2022-09-15T06:49:19.123Z,62.64
2022-09-15T06:51:47.436Z,62.92
2022-09-15T06:54:16.986Z,62.91
2022-09-15T06:56:46.035Z,62.48
2022-09-15T06:59:16.668Z,62.19
2022-09-15T07:01:46.389Z,62.24
2022-09-15T07:04:14.762Z,61.68
2022-09-15T07:06:42.972Z,61.55
2022-09-15T07:09:12.871Z,61.47
2022-09-15T07:11:41.482Z,61.29
2022-09-15T07:14:09.718Z,61.11
2022-09-15T07:16:38.142Z,61.21
2022-09-15T07:19:08.050Z,61.53
2022-09-15T07:21:36.777Z,61.40
2022-09-15T07:24:07.420Z,61.29
2022-09-15T07:26:36.481Z,61.64
2022-09-15T07:29:07.560Z,62.14
2022-09-15T07:31:39.024Z,62.41
2022-09-15T07:34:09.347Z,62.89
2022-09-15T07:36:37.872Z,63.00
2022-09-15T07:39:07.005Z,63.31
2022-09-15T07:41:35.475Z,63.21
2022-09-15T07:44:04.109Z,62.80
2022-09-15T07:46:33.891Z,62.82
2022-09-15T07:49:03.186Z,63.07
2022-09-15T07:51:33.196Z,62.29
2022-09-15T07:54:01.714Z,62.19
2022-09-15T07:56:30.145Z,61.41
2022-09-15T07:58:58.946Z,61.78
2022-09-15T08:01:27.395Z,60.61
2022-09-15T08:03:56.006Z,61.30
2022-09-15T08:06:26.548Z,61.22
2022-09-15T08:09:00.367Z,61.77
2022-09-15T08:11:30.193Z,61.80
2022-09-15T08:14:02.263Z,61.75
2022-09-15T08:16:30.689Z,61.84
2022-09-15T08:18:58.970Z,61.88
2022-09-15T08:21:27.766Z,61.83
2022-09-15T08:23:59.393Z,62.18
2022-09-15T08:26:31.054Z,63.12
2022-09-15T08:29:00.654Z,62.44
2022-09-15T08:31:28.974Z,62.55
2022-09-15T08:33:57.731Z,62.85
2022-09-15T08:36:27.841Z,63.05
2022-09-15T08:38:57.875Z,62.68
2022-09-15T08:41:29.912Z,62.39
2022-09-15T08:44:04.613Z,61.86
2022-09-15T08:46:39.202Z,61.43
2022-09-15T08:49:26.827Z,60.15
2022-09-15T08:52:10.317Z,60.06
2022-09-15T08:54:40.228Z,60.39
2022-09-15T08:57:18.122Z,60.05
2022-09-15T08:59:47.223Z,59.69
2022-09-15T09:02:43.576Z,58.95
2022-09-15T09:05:29.331Z,58.34
2022-09-15T09:08:34.379Z,57.27
2022-09-15T09:11:20.083Z,57.05
2022-09-15T09:13:54.254Z,57.17
2022-09-15T09:16:43.014Z,56.45
2022-09-15T09:19:47.639Z,55.70
2022-09-15T09:22:19.678Z,55.65
2022-09-15T09:24:52.510Z,55.96
2022-09-15T09:27:29.088Z,55.67
2022-09-15T09:30:04.919Z,54.34
2022-09-15T09:32:41.498Z,54.78
2022-09-15T09:35:23.711Z,53.79
2022-09-15T09:37:54.706Z,53.49
2022-09-15T09:40:23.651Z,52.57
2022-09-15T09:42:53.662Z,52.12
2022-09-15T09:45:22.962Z,52.79
2022-09-15T09:47:51.438Z,51.49
2022-09-15T09:50:36.256Z,50.22
2022-09-15T09:53:25.045Z,49.94
2022-09-15T09:55:55.090Z,50.88
2022-09-15T09:58:26.449Z,51.94
2022-09-15T10:00:54.891Z,52.72
2022-09-15T10:03:30.612Z,52.42
2022-09-15T10:06:08.406Z,51.20
2022-09-15T10:08:37.912Z,51.50
2022-09-15T10:11:10.299Z,50.94
2022-09-15T10:13:54.589Z,51.73
2022-09-15T10:16:23.849Z,51.05
2022-09-15T10:18:54.537Z,51.07
2022-09-15T10:21:25.669Z,50.51
2022-09-15T10:23:54.119Z,49.90
2022-09-15T10:26:33.218Z,49.40
2022-09-15T10:29:26.842Z,50.05
2022-09-15T10:31:55.151Z,49.71
2022-09-15T10:34:31.295Z,50.12
2022-09-15T10:37:19.818Z,49.11
2022-09-15T10:39:55.176Z,47.68
2022-09-15T10:42:53.008Z,47.84
2022-09-15T10:45:35.828Z,47.61
2022-09-15T10:48:24.253Z,49.37
2022-09-15T10:50:59.097Z,48.76
2022-09-15T10:53:58.681Z,48.39
2022-09-15T10:56:31.764Z,48.87
2022-09-15T10:59:17.910Z,49.00
2022-09-15T11:02:12.749Z,48.98
2022-09-15T11:05:10.307Z,49.12
2022-09-15T11:07:54.138Z,49.65
2022-09-15T11:10:32.004Z,49.75
2022-09-15T11:13:12.403Z,50.57
2022-09-15T11:15:55.329Z,51.76
2022-09-15T11:19:02.090Z,52.20
2022-09-15T11:21:35.743Z,51.35
2022-09-15T11:24:29.660Z,50.63
2022-09-15T11:27:03.383Z,51.60
2022-09-15T11:29:42.313Z,52.18
2022-09-15T11:32:17.436Z,52.09
2022-09-15T11:34:54.951Z,53.37
2022-09-15T11:37:28.056Z,52.64
2022-09-15T11:40:03.874Z,53.08
2022-09-15T11:42:38.931Z,52.84
2022-09-15T11:45:16.275Z,52.55
2022-09-15T11:47:48.903Z,52.21
2022-09-15T11:50:26.958Z,51.60
2022-09-15T11:53:02.237Z,52.05
2022-09-15T11:55:36.991Z,53.46
2022-09-15T11:58:22.157Z,53.70
2022-09-15T12:00:56.359Z,52.99
2022-09-15T12:03:32.180Z,52.73
2022-09-15T12:06:08.773Z,52.90
2022-09-15T12:08:43.442Z,52.71
2022-09-15T12:11:18.969Z,53.60
2022-09-15T12:13:47.666Z,53.69
2022-09-15T12:16:17.179Z,53.96
2022-09-15T12:18:51.371Z,53.60
2022-09-15T12:21:32.055Z,54.88
2022-09-15T12:24:04.129Z,55.04
2022-09-15T12:26:34.999Z,54.34
2022-09-15T12:29:04.983Z,54.52
2022-09-15T12:31:38.439Z,51.79
2022-09-15T12:34:36.122Z,51.26
2022-09-15T12:37:13.202Z,52.21
2022-09-15T12:39:43.619Z,53.67
2022-09-15T12:42:20.438Z,53.74
2022-09-15T12:44:53.972Z,54.74
2022-09-15T12:47:33.689Z,54.12
2022-09-15T12:50:10.244Z,53.87
2022-09-15T12:52:48.776Z,53.61
2022-09-15T12:55:23.893Z,54.73
2022-09-15T12:57:56.555Z,55.16
2022-09-15T13:00:49.999Z,55.28
2022-09-15T13:04:20.228Z,54.89
2022-09-15T13:07:33.668Z,54.27
2022-09-15T13:10:32.045Z,55.40
2022-09-15T13:13:20.889Z,54.58
2022-09-15T13:15:53.252Z,55.26
2022-09-15T13:18:23.388Z,56.32
2022-09-15T13:21:00.324Z,56.66
2022-09-15T13:23:36.649Z,56.78
2022-09-15T13:26:10.123Z,56.17
2022-09-15T13:28:39.216Z,56.60
2022-09-15T13:31:20.520Z,56.95
2022-09-15T13:38:16.762Z,55.58
2022-09-15T13:41:05.335Z,55.16
2022-09-15T13:44:27.090Z,55.24
2022-09-15T13:47:16.456Z,55.50
2022-09-15T13:49:53.343Z,54.54
2022-09-15T13:52:57.195Z,54.53
2022-09-15T13:55:28.531Z,54.17
2022-09-15T14:01:00.098Z,55.95
2022-09-15T14:03:37.267Z,56.82
2022-09-15T14:06:16.998Z,59.27
2022-09-15T14:08:51.291Z,60.25
2022-09-15T14:11:30.094Z,60.62
2022-09-15T14:14:00.573Z,60.65
2022-09-15T14:16:36.829Z,60.48
2022-09-15T14:19:31.223Z,61.62
2022-09-15T14:21:59.503Z,62.97
2022-09-15T14:24:30.618Z,63.32
2022-09-15T14:27:03.311Z,64.31
2022-09-15T14:29:31.696Z,64.94
2022-09-15T14:32:04.953Z,64.70
2022-09-15T14:34:37.273Z,64.97
2022-09-15T14:37:08.806Z,66.35
2022-09-15T14:39:40.236Z,66.36
2022-09-15T14:42:21.811Z,66.15
2022-09-15T14:47:43.340Z,66.11
2022-09-15T14:50:17.275Z,66.73
2022-09-15T14:52:50.567Z,65.72
2022-09-15T14:55:26.047Z,64.41
2022-09-15T14:58:01.577Z,65.21
2022-09-15T15:00:35.461Z,63.94
2022-09-15T15:03:19.838Z,64.10
2022-09-15T15:05:58.135Z,62.60
2022-09-15T15:08:37.725Z,62.61
2022-09-15T15:11:10.710Z,62.68
2022-09-15T15:13:42.057Z,61.60
2022-09-15T15:16:24.472Z,61.98
2022-09-15T15:18:57.051Z,61.17
2022-09-15T15:21:41.120Z,61.56
2022-09-15T15:24:21.271Z,62.01
2022-09-15T15:26:51.220Z,60.34
2022-09-15T15:29:44.124Z,60.29
2022-09-15T15:32:15.040Z,60.54
2022-09-15T15:34:52.233Z,60.46
2022-09-15T15:37:28.104Z,59.17
2022-09-15T15:39:57.708Z,59.85
2022-09-15T15:42:27.779Z,60.69
2022-09-15T15:45:17.405Z,61.18
2022-09-15T15:47:45.639Z,59.80
2022-09-15T15:50:20.807Z,60.28
2022-09-15T15:52:50.511Z,60.39
2022-09-15T15:55:21.460Z,59.93
2022-09-15T15:57:52.249Z,61.27
2022-09-15T16:00:24.226Z,62.89
2022-09-15T16:02:54.112Z,63.78
2022-09-15T16:05:28.284Z,63.53
2022-09-15T16:08:00.297Z,63.90
2022-09-15T16:10:32.027Z,64.00
2022-09-15T16:13:00.368Z,62.03
2022-09-15T16:15:28.695Z,61.98
2022-09-15T16:17:57.058Z,63.00
2022-09-15T16:20:28.029Z,64.56
2022-09-15T16:22:56.335Z,64.81
2022-09-15T16:25:33.799Z,65.59
2022-09-15T16:28:02.531Z,65.12
2022-09-15T16:30:30.824Z,64.56
2022-09-15T16:32:59.538Z,63.48
2022-09-15T16:35:40.506Z,63.54
2022-09-15T16:38:09.466Z,62.72
2022-09-15T16:40:37.962Z,61.77
2022-09-15T16:43:11.112Z,61.06
2022-09-15T16:45:40.881Z,61.36
2022-09-15T16:48:10.349Z,61.57
2022-09-15T16:50:50.151Z,61.54
2022-09-15T16:53:30.873Z,61.66
2022-09-15T16:55:59.325Z,61.54
2022-09-15T16:58:28.138Z,60.67
2022-09-15T17:00:56.979Z,61.89
2022-09-15T17:03:27.639Z,61.31
2022-09-15T17:05:58.882Z,61.14
2022-09-15T17:08:29.880Z,61.03
2022-09-15T17:10:59.067Z,60.89
2022-09-15T17:13:30.513Z,60.73
2022-09-15T17:15:59.804Z,60.69
2022-09-15T17:18:29.523Z,61.05
2022-09-15T17:20:59.449Z,61.29
2022-09-15T17:23:31.682Z,61.72
2022-09-15T17:26:02.615Z,61.43
2022-09-15T17:28:33.521Z,61.07
2022-09-15T17:31:04.527Z,61.37
2022-09-15T17:33:33.543Z,61.25
2022-09-15T17:36:03.745Z,61.94
2022-09-15T17:38:32.355Z,61.61
2022-09-15T17:41:00.753Z,60.86
2022-09-15T17:43:31.294Z,60.88
2022-09-15T17:46:00.038Z,61.54
2022-09-15T17:48:28.451Z,62.72
2022-09-15T17:50:56.767Z,63.18
2022-09-15T17:53:27.518Z,63.83
2022-09-15T17:55:57.211Z,63.67
2022-09-15T17:58:26.729Z,63.21
2022-09-15T18:00:55.368Z,62.95
2022-09-15T18:03:27.885Z,63.45
2022-09-15T18:05:58.515Z,63.08
2022-09-15T18:08:28.967Z,63.26
2022-09-15T18:10:57.363Z,63.08
2022-09-15T18:13:27.946Z,62.99
2022-09-15T18:15:56.215Z,63.80
2022-09-15T18:18:26.797Z,62.72
2022-09-15T18:20:57.838Z,63.22
2022-09-15T18:23:29.558Z,64.59
2022-09-15T18:25:58.322Z,64.29
2022-09-15T18:28:26.720Z,63.94
2022-09-15T18:30:55.048Z,63.70
2022-09-15T18:33:26.299Z,62.92
2022-09-15T18:35:58.827Z,62.80
2022-09-15T18:38:28.552Z,63.74
2022-09-15T18:40:58.297Z,63.75
2022-09-15T18:43:28.687Z,63.50
2022-09-15T18:46:00.646Z,66.36
2022-09-15T18:48:29.894Z,69.13
2022-09-15T18:50:58.737Z,68.81
2022-09-15T18:53:28.486Z,67.68
2022-09-15T18:55:56.853Z,68.29
2022-09-15T18:58:25.240Z,68.80
2022-09-15T19:00:53.457Z,69.86
2022-09-15T19:03:21.824Z,69.55
2022-09-15T19:05:50.537Z,68.89
2022-09-15T19:08:19.002Z,69.00
2022-09-15T19:10:58.354Z,69.49
2022-09-15T19:13:26.620Z,69.24
2022-09-15T19:15:55.143Z,68.50
2022-09-15T19:18:23.835Z,67.25
2022-09-15T19:20:52.025Z,64.41
2022-09-15T19:23:20.409Z,63.60
2022-09-15T19:25:50.100Z,62.89
2022-09-15T19:28:18.370Z,62.83
2022-09-15T19:30:46.687Z,62.33
2022-09-15T19:33:14.998Z,63.06
2022-09-15T19:35:43.837Z,63.27
2022-09-15T19:38:12.172Z,63.60
2022-09-15T19:40:40.435Z,64.49
2022-09-15T19:43:10.452Z,64.31
2022-09-15T19:45:42.558Z,65.36
2022-09-15T19:48:10.834Z,65.43
2022-09-15T19:50:40.043Z,64.66
2022-09-15T19:53:08.693Z,63.04
2022-09-15T19:55:36.956Z,63.80
2022-09-15T19:58:05.261Z,64.01
2022-09-15T20:00:35.392Z,63.52
2022-09-15T20:03:03.632Z,63.04
2022-09-15T20:05:31.838Z,64.56
2022-09-15T20:08:00.792Z,64.94
2022-09-15T20:10:29.036Z,65.16
2022-09-15T20:12:57.478Z,64.57
2022-09-15T20:15:26.154Z,64.21
2022-09-15T20:17:56.571Z,64.32
2022-09-15T20:20:25.147Z,64.56
2022-09-15T20:22:53.478Z,64.52
2022-09-15T20:25:24.013Z,64.50
2022-09-15T20:27:53.454Z,63.76
2022-09-15T20:30:22.291Z,62.99
2022-09-15T20:32:50.561Z,62.64
2022-09-15T20:35:20.327Z,62.30
2022-09-15T20:37:49.471Z,63.10
2022-09-15T20:40:18.011Z,62.63
2022-09-15T20:42:47.660Z,62.99
2022-09-15T20:45:16.424Z,61.62
2022-09-15T20:47:44.667Z,59.70
2022-09-15T20:50:12.883Z,60.56
2022-09-15T20:52:42.507Z,59.99
2022-09-15T20:55:11.086Z,58.91
2022-09-15T20:57:39.282Z,59.60
2022-09-15T21:00:10.318Z,60.74
2022-09-15T21:02:39.073Z,61.45
2022-09-15T21:05:07.744Z,61.67
2022-09-15T21:07:36.307Z,61.78
2022-09-15T21:10:08.086Z,62.48
2022-09-15T21:12:36.366Z,62.68
2022-09-15T21:15:05.252Z,63.16
2022-09-15T21:17:33.746Z,62.43
2022-09-15T21:20:02.019Z,62.96
2022-09-15T21:22:30.339Z,63.06
2022-09-15T21:24:58.684Z,64.30
2022-09-15T21:27:28.874Z,65.80
2022-09-15T21:29:57.524Z,65.78
2022-09-15T21:32:25.802Z,65.31
2022-09-15T21:34:55.970Z,65.26
2022-09-15T21:37:26.919Z,66.05
2022-09-15T21:39:55.932Z,66.79
2022-09-15T21:42:25.057Z,67.38
2022-09-15T21:44:55.607Z,65.47
2022-09-15T21:47:23.996Z,64.49
2022-09-15T21:49:52.231Z,62.66
2022-09-15T21:52:20.544Z,61.82
2022-09-15T21:54:49.139Z,61.44
2022-09-15T21:57:17.382Z,61.51
2022-09-15T21:59:45.610Z,61.45
2022-09-15T22:02:17.127Z,61.22
2022-09-15T22:04:45.556Z,62.36
2022-09-15T22:07:15.182Z,63.05
2022-09-15T22:09:43.427Z,63.39
2022-09-15T22:12:11.679Z,62.49
2022-09-15T22:14:39.949Z,63.21
2022-09-15T22:17:08.149Z,62.25
2022-09-15T22:19:37.773Z,60.86
2022-09-15T22:22:06.321Z,60.79
2022-09-15T22:24:34.561Z,60.58
2022-09-15T22:27:02.848Z,60.01
2022-09-15T22:29:31.098Z,60.14
2022-09-15T22:31:59.356Z,59.46
2022-09-15T22:34:29.115Z,59.21
2022-09-15T22:36:58.972Z,59.67
2022-09-15T22:39:50.321Z,59.15
2022-09-15T22:42:15.543Z,58.88
2022-09-15T22:44:44.159Z,59.50
2022-09-15T22:47:12.404Z,59.23
2022-09-15T22:49:40.662Z,58.61
2022-09-15T22:52:10.695Z,58.17
2022-09-15T22:54:38.921Z,59.29
2022-09-15T22:57:07.827Z,57.61
2022-09-15T22:59:36.213Z,58.40
2022-09-15T23:02:04.535Z,58.44
2022-09-15T23:04:32.801Z,58.83
2022-09-15T23:07:00.996Z,58.19
2022-09-15T23:09:30.810Z,58.77
2022-09-15T23:11:59.460Z,59.01
2022-09-15T23:14:27.909Z,59.65
2022-09-15T23:16:56.213Z,59.91
2022-09-15T23:19:24.494Z,58.69
2022-09-15T23:21:52.758Z,58.90
2022-09-15T23:24:21.567Z,58.80
2022-09-15T23:26:51.183Z,58.67
2022-09-15T23:29:19.395Z,59.18
2022-09-15T23:31:47.669Z,59.13
2022-09-15T23:34:16.023Z,58.86
2022-09-15T23:36:44.200Z,59.05
2022-09-15T23:39:12.474Z,59.45
2022-09-15T23:41:41.348Z,59.44
2022-09-15T23:44:11.173Z,59.96
2022-09-15T23:46:39.517Z,59.54
2022-09-15T23:49:07.880Z,59.27
2022-09-15T23:51:36.247Z,59.46
2022-09-15T23:54:04.983Z,60.04
2022-09-15T23:56:33.799Z,62.21
2022-09-15T23:59:02.597Z,62.93
